sensor_id;sensor_type;location;lat;lon;timestamp;temperature;humidity
33761;DHT22;20084;47.912;19.044;2022-10-31T00:00:16;12.90;99.90
33761;DHT22;20084;47.912;19.044;2022-10-31T00:02:42;12.80;99.90
33761;DHT22;20084;47.912;19.044;2022-10-31T00:05:08;12.70;99.90
33761;DHT22;20084;47.912;19.044;2022-10-31T00:07:33;12.60;99.90
33761;DHT22;20084;47.912;19.044;2022-10-31T00:09:59;12.70;99.90
33761;DHT22;20084;47.912;19.044;2022-10-31T00:12:26;12.70;99.90
33761;DHT22;20084;47.912;19.044;2022-10-31T00:14:51;12.60;99.90
33761;DHT22;20084;47.912;19.044;2022-10-31T00:17:17;12.60;99.90
33761;DHT22;20084;47.912;19.044;2022-10-31T00:19:43;12.70;99.90
33761;DHT22;20084;47.912;19.044;2022-10-31T00:22:08;12.70;99.90
33761;DHT22;20084;47.912;19.044;2022-10-31T00:24:34;12.70;99.90
33761;DHT22;20084;47.912;19.044;2022-10-31T00:26:59;12.60;99.90
33761;DHT22;20084;47.912;19.044;2022-10-31T00:29:25;12.60;99.90
33761;DHT22;20084;47.912;19.044;2022-10-31T00:31:52;12.60;99.90
33761;DHT22;20084;47.912;19.044;2022-10-31T00:34:17;12.60;99.90
33761;DHT22;20084;47.912;19.044;2022-10-31T00:36:43;12.60;99.90
33761;DHT22;20084;47.912;19.044;2022-10-31T00:39:09;12.70;99.90
33761;DHT22;20084;47.912;19.044;2022-10-31T00:41:34;12.70;99.90
33761;DHT22;20084;47.912;19.044;2022-10-31T00:44:00;12.70;99.90
33761;DHT22;20084;47.912;19.044;2022-10-31T00:46:25;12.80;99.90
33761;DHT22;20084;47.912;19.044;2022-10-31T00:48:51;12.80;99.90
33761;DHT22;20084;47.912;19.044;2022-10-31T00:51:17;12.80;99.90
33761;DHT22;20084;47.912;19.044;2022-10-31T00:53:43;12.80;99.90
33761;DHT22;20084;47.912;19.044;2022-10-31T00:56:09;12.80;99.90
33761;DHT22;20084;47.912;19.044;2022-10-31T00:58:34;12.80;99.90
33761;DHT22;20084;47.912;19.044;2022-10-31T01:01:00;12.80;99.90
33761;DHT22;20084;47.912;19.044;2022-10-31T01:03:28;12.80;99.90
33761;DHT22;20084;47.912;19.044;2022-10-31T01:06:01;12.70;99.90
33761;DHT22;20084;47.912;19.044;2022-10-31T01:08:27;12.70;99.90
33761;DHT22;20084;47.912;19.044;2022-10-31T01:11:28;12.70;99.90
33761;DHT22;20084;47.912;19.044;2022-10-31T01:13:54;12.70;99.90
33761;DHT22;20084;47.912;19.044;2022-10-31T01:16:22;12.70;99.90
33761;DHT22;20084;47.912;19.044;2022-10-31T01:18:48;12.70;99.90
33761;DHT22;20084;47.912;19.044;2022-10-31T01:21:20;12.70;99.90
33761;DHT22;20084;47.912;19.044;2022-10-31T01:23:46;12.70;99.90
33761;DHT22;20084;47.912;19.044;2022-10-31T01:26:24;12.70;99.90
33761;DHT22;20084;47.912;19.044;2022-10-31T01:28:54;12.60;99.90
33761;DHT22;20084;47.912;19.044;2022-10-31T01:31:23;12.60;99.90
33761;DHT22;20084;47.912;19.044;2022-10-31T01:33:49;12.60;99.90
33761;DHT22;20084;47.912;19.044;2022-10-31T01:36:17;12.50;99.90
33761;DHT22;20084;47.912;19.044;2022-10-31T01:38:43;12.50;99.90
33761;DHT22;20084;47.912;19.044;2022-10-31T01:41:10;12.50;99.90
33761;DHT22;20084;47.912;19.044;2022-10-31T01:43:50;12.50;99.90
33761;DHT22;20084;47.912;19.044;2022-10-31T01:46:19;12.50;99.90
33761;DHT22;20084;47.912;19.044;2022-10-31T01:48:46;12.50;99.90
33761;DHT22;20084;47.912;19.044;2022-10-31T01:51:14;12.40;99.90
33761;DHT22;20084;47.912;19.044;2022-10-31T01:53:42;12.40;99.90
33761;DHT22;20084;47.912;19.044;2022-10-31T01:56:09;12.40;99.90
33761;DHT22;20084;47.912;19.044;2022-10-31T01:58:35;12.40;99.90
33761;DHT22;20084;47.912;19.044;2022-10-31T02:01:01;12.50;99.90
33761;DHT22;20084;47.912;19.044;2022-10-31T02:03:28;12.50;99.90
33761;DHT22;20084;47.912;19.044;2022-10-31T02:05:55;12.50;99.90
33761;DHT22;20084;47.912;19.044;2022-10-31T02:08:31;12.40;99.90
33761;DHT22;20084;47.912;19.044;2022-10-31T02:10:58;12.40;99.90
33761;DHT22;20084;47.912;19.044;2022-10-31T02:13:26;12.40;99.90
33761;DHT22;20084;47.912;19.044;2022-10-31T02:15:55;12.40;99.90
33761;DHT22;20084;47.912;19.044;2022-10-31T02:18:22;12.50;99.90
33761;DHT22;20084;47.912;19.044;2022-10-31T02:20:52;12.50;99.90
33761;DHT22;20084;47.912;19.044;2022-10-31T02:32:00;12.40;99.90
33761;DHT22;20084;47.912;19.044;2022-10-31T02:37:34;12.40;99.90
33761;DHT22;20084;47.912;19.044;2022-10-31T02:40:14;12.40;99.90
33761;DHT22;20084;47.912;19.044;2022-10-31T02:42:51;12.50;99.90
33761;DHT22;20084;47.912;19.044;2022-10-31T02:48:25;12.50;99.90
33761;DHT22;20084;47.912;19.044;2022-10-31T02:50:59;12.40;99.90
33761;DHT22;20084;47.912;19.044;2022-10-31T02:53:26;12.40;99.90
33761;DHT22;20084;47.912;19.044;2022-10-31T02:56:08;12.40;99.90
33761;DHT22;20084;47.912;19.044;2022-10-31T02:58:40;12.40;99.90
33761;DHT22;20084;47.912;19.044;2022-10-31T03:03:44;12.30;99.90
33761;DHT22;20084;47.912;19.044;2022-10-31T03:06:35;12.30;99.90
33761;DHT22;20084;47.912;19.044;2022-10-31T03:11:33;12.30;99.90
33761;DHT22;20084;47.912;19.044;2022-10-31T03:14:26;12.30;99.90
33761;DHT22;20084;47.912;19.044;2022-10-31T03:16:55;12.30;99.90
33761;DHT22;20084;47.912;19.044;2022-10-31T03:19:29;12.30;99.90
33761;DHT22;20084;47.912;19.044;2022-10-31T03:22:03;12.30;99.90
33761;DHT22;20084;47.912;19.044;2022-10-31T03:24:34;12.30;99.90
33761;DHT22;20084;47.912;19.044;2022-10-31T03:27:01;12.30;99.90
33761;DHT22;20084;47.912;19.044;2022-10-31T03:29:30;12.40;99.90
33761;DHT22;20084;47.912;19.044;2022-10-31T03:32:01;12.40;99.90
33761;DHT22;20084;47.912;19.044;2022-10-31T03:34:30;12.40;99.90
33761;DHT22;20084;47.912;19.044;2022-10-31T03:36:58;12.40;99.90
33761;DHT22;20084;47.912;19.044;2022-10-31T03:39:25;12.40;99.90
33761;DHT22;20084;47.912;19.044;2022-10-31T03:42:14;12.40;99.90
33761;DHT22;20084;47.912;19.044;2022-10-31T03:44:42;12.40;99.90
33761;DHT22;20084;47.912;19.044;2022-10-31T03:47:09;12.40;99.90
33761;DHT22;20084;47.912;19.044;2022-10-31T03:49:35;12.40;99.90
33761;DHT22;20084;47.912;19.044;2022-10-31T03:54:54;12.40;99.90
33761;DHT22;20084;47.912;19.044;2022-10-31T03:57:35;12.30;99.90
33761;DHT22;20084;47.912;19.044;2022-10-31T04:00:06;12.30;99.90
33761;DHT22;20084;47.912;19.044;2022-10-31T04:02:36;12.30;99.90
33761;DHT22;20084;47.912;19.044;2022-10-31T04:05:03;12.30;99.90
33761;DHT22;20084;47.912;19.044;2022-10-31T04:07:33;12.30;99.90
33761;DHT22;20084;47.912;19.044;2022-10-31T04:10:02;12.40;99.90
33761;DHT22;20084;47.912;19.044;2022-10-31T04:12:31;12.30;99.90
33761;DHT22;20084;47.912;19.044;2022-10-31T04:14:59;12.30;99.90
33761;DHT22;20084;47.912;19.044;2022-10-31T04:17:28;12.30;99.90
33761;DHT22;20084;47.912;19.044;2022-10-31T04:19:55;12.40;99.90
33761;DHT22;20084;47.912;19.044;2022-10-31T04:22:24;12.30;99.90
33761;DHT22;20084;47.912;19.044;2022-10-31T04:24:49;12.30;99.90
33761;DHT22;20084;47.912;19.044;2022-10-31T04:27:15;12.30;99.90
33761;DHT22;20084;47.912;19.044;2022-10-31T04:29:40;12.30;99.90
33761;DHT22;20084;47.912;19.044;2022-10-31T04:32:06;12.40;99.90
33761;DHT22;20084;47.912;19.044;2022-10-31T04:34:32;12.40;99.90
33761;DHT22;20084;47.912;19.044;2022-10-31T04:36:57;12.50;99.90
33761;DHT22;20084;47.912;19.044;2022-10-31T04:39:23;12.40;99.90
33761;DHT22;20084;47.912;19.044;2022-10-31T04:41:48;12.40;99.90
33761;DHT22;20084;47.912;19.044;2022-10-31T04:44:15;12.40;99.90
33761;DHT22;20084;47.912;19.044;2022-10-31T04:46:40;12.40;99.90
33761;DHT22;20084;47.912;19.044;2022-10-31T04:49:06;12.40;99.90
33761;DHT22;20084;47.912;19.044;2022-10-31T04:51:32;12.40;99.90
33761;DHT22;20084;47.912;19.044;2022-10-31T04:53:57;12.50;99.90
33761;DHT22;20084;47.912;19.044;2022-10-31T04:56:23;12.40;99.90
33761;DHT22;20084;47.912;19.044;2022-10-31T04:58:48;12.40;99.90
33761;DHT22;20084;47.912;19.044;2022-10-31T05:01:14;12.50;99.90
33761;DHT22;20084;47.912;19.044;2022-10-31T05:03:39;12.50;99.90
33761;DHT22;20084;47.912;19.044;2022-10-31T05:06:06;12.50;99.90
33761;DHT22;20084;47.912;19.044;2022-10-31T05:08:32;12.60;99.90
33761;DHT22;20084;47.912;19.044;2022-10-31T05:11:04;12.60;99.90
33761;DHT22;20084;47.912;19.044;2022-10-31T05:13:30;12.60;99.90
33761;DHT22;20084;47.912;19.044;2022-10-31T05:15:55;12.60;99.90
33761;DHT22;20084;47.912;19.044;2022-10-31T05:18:21;12.60;99.90
33761;DHT22;20084;47.912;19.044;2022-10-31T05:20:47;12.60;99.90
33761;DHT22;20084;47.912;19.044;2022-10-31T05:23:12;12.70;99.90
33761;DHT22;20084;47.912;19.044;2022-10-31T05:25:40;12.60;99.90
33761;DHT22;20084;47.912;19.044;2022-10-31T05:28:05;12.60;99.90
33761;DHT22;20084;47.912;19.044;2022-10-31T05:30:31;12.60;99.90
33761;DHT22;20084;47.912;19.044;2022-10-31T05:32:57;12.60;99.90
33761;DHT22;20084;47.912;19.044;2022-10-31T05:35:30;12.60;99.90
33761;DHT22;20084;47.912;19.044;2022-10-31T05:37:56;12.60;99.90
33761;DHT22;20084;47.912;19.044;2022-10-31T05:40:23;12.60;99.90
33761;DHT22;20084;47.912;19.044;2022-10-31T05:42:53;12.60;99.90
33761;DHT22;20084;47.912;19.044;2022-10-31T05:45:20;12.60;99.90
33761;DHT22;20084;47.912;19.044;2022-10-31T05:47:57;12.60;99.90
33761;DHT22;20084;47.912;19.044;2022-10-31T05:50:25;12.60;99.90
33761;DHT22;20084;47.912;19.044;2022-10-31T05:53:03;12.60;99.90
33761;DHT22;20084;47.912;19.044;2022-10-31T05:55:30;12.70;99.90
33761;DHT22;20084;47.912;19.044;2022-10-31T05:57:56;12.70;99.90
33761;DHT22;20084;47.912;19.044;2022-10-31T06:00:23;12.70;99.90
33761;DHT22;20084;47.912;19.044;2022-10-31T06:02:49;12.60;99.90
33761;DHT22;20084;47.912;19.044;2022-10-31T06:05:22;12.60;99.90
33761;DHT22;20084;47.912;19.044;2022-10-31T06:07:47;12.60;99.90
33761;DHT22;20084;47.912;19.044;2022-10-31T06:10:13;12.60;99.90
33761;DHT22;20084;47.912;19.044;2022-10-31T06:12:39;12.70;99.90
33761;DHT22;20084;47.912;19.044;2022-10-31T06:15:07;12.80;99.90
33761;DHT22;20084;47.912;19.044;2022-10-31T06:17:34;12.80;99.90
33761;DHT22;20084;47.912;19.044;2022-10-31T06:20:00;12.80;99.90
33761;DHT22;20084;47.912;19.044;2022-10-31T06:22:25;12.80;99.90
33761;DHT22;20084;47.912;19.044;2022-10-31T06:24:51;12.80;99.90
33761;DHT22;20084;47.912;19.044;2022-10-31T06:27:16;12.90;99.90
33761;DHT22;20084;47.912;19.044;2022-10-31T06:29:42;12.90;99.90
33761;DHT22;20084;47.912;19.044;2022-10-31T06:32:11;12.80;99.90
33761;DHT22;20084;47.912;19.044;2022-10-31T06:34:37;12.80;99.90
33761;DHT22;20084;47.912;19.044;2022-10-31T06:37:03;12.90;99.90
33761;DHT22;20084;47.912;19.044;2022-10-31T06:39:28;12.90;99.90
33761;DHT22;20084;47.912;19.044;2022-10-31T06:41:54;12.90;99.90
33761;DHT22;20084;47.912;19.044;2022-10-31T06:44:19;12.90;99.90
33761;DHT22;20084;47.912;19.044;2022-10-31T06:46:48;12.90;99.90
33761;DHT22;20084;47.912;19.044;2022-10-31T06:49:14;12.90;99.90
33761;DHT22;20084;47.912;19.044;2022-10-31T06:51:39;12.90;99.90
33761;DHT22;20084;47.912;19.044;2022-10-31T06:54:05;13.00;99.90
33761;DHT22;20084;47.912;19.044;2022-10-31T06:56:30;13.00;99.90
33761;DHT22;20084;47.912;19.044;2022-10-31T06:58:56;12.90;99.90
33761;DHT22;20084;47.912;19.044;2022-10-31T07:01:21;13.00;99.90
33761;DHT22;20084;47.912;19.044;2022-10-31T07:03:47;13.00;99.90
33761;DHT22;20084;47.912;19.044;2022-10-31T07:06:12;13.00;99.90
33761;DHT22;20084;47.912;19.044;2022-10-31T07:08:38;13.00;99.90
33761;DHT22;20084;47.912;19.044;2022-10-31T07:11:04;13.10;99.90
33761;DHT22;20084;47.912;19.044;2022-10-31T07:13:29;13.00;99.90
33761;DHT22;20084;47.912;19.044;2022-10-31T07:16:00;13.00;99.90
33761;DHT22;20084;47.912;19.044;2022-10-31T07:18:26;13.00;99.90
33761;DHT22;20084;47.912;19.044;2022-10-31T07:20:52;13.00;99.90
33761;DHT22;20084;47.912;19.044;2022-10-31T07:23:18;13.10;99.90
33761;DHT22;20084;47.912;19.044;2022-10-31T07:25:44;13.20;99.90
33761;DHT22;20084;47.912;19.044;2022-10-31T07:28:10;13.10;99.90
33761;DHT22;20084;47.912;19.044;2022-10-31T07:30:36;13.10;99.90
33761;DHT22;20084;47.912;19.044;2022-10-31T07:33:02;13.10;99.90
33761;DHT22;20084;47.912;19.044;2022-10-31T07:35:28;13.10;99.90
33761;DHT22;20084;47.912;19.044;2022-10-31T07:37:55;13.10;99.90
33761;DHT22;20084;47.912;19.044;2022-10-31T07:40:22;13.10;99.90
33761;DHT22;20084;47.912;19.044;2022-10-31T07:42:49;13.10;99.90
33761;DHT22;20084;47.912;19.044;2022-10-31T07:45:18;13.10;99.90
33761;DHT22;20084;47.912;19.044;2022-10-31T07:50:13;13.10;99.90
33761;DHT22;20084;47.912;19.044;2022-10-31T07:52:39;13.10;99.90
33761;DHT22;20084;47.912;19.044;2022-10-31T07:55:06;13.10;99.90
33761;DHT22;20084;47.912;19.044;2022-10-31T07:57:31;13.20;99.90
33761;DHT22;20084;47.912;19.044;2022-10-31T07:59:57;13.20;99.90
33761;DHT22;20084;47.912;19.044;2022-10-31T08:02:23;13.30;99.90
33761;DHT22;20084;47.912;19.044;2022-10-31T08:04:49;13.30;99.90
33761;DHT22;20084;47.912;19.044;2022-10-31T08:07:15;13.30;99.90
33761;DHT22;20084;47.912;19.044;2022-10-31T08:09:40;13.30;99.90
33761;DHT22;20084;47.912;19.044;2022-10-31T08:12:06;13.20;99.90
33761;DHT22;20084;47.912;19.044;2022-10-31T08:14:32;13.20;99.90
33761;DHT22;20084;47.912;19.044;2022-10-31T08:16:57;13.20;99.90
33761;DHT22;20084;47.912;19.044;2022-10-31T08:19:23;13.30;99.90
33761;DHT22;20084;47.912;19.044;2022-10-31T08:21:52;13.20;99.90
33761;DHT22;20084;47.912;19.044;2022-10-31T08:24:20;13.20;99.90
33761;DHT22;20084;47.912;19.044;2022-10-31T08:26:46;13.20;99.90
33761;DHT22;20084;47.912;19.044;2022-10-31T08:29:12;13.20;99.90
33761;DHT22;20084;47.912;19.044;2022-10-31T08:31:38;13.20;99.90
33761;DHT22;20084;47.912;19.044;2022-10-31T08:34:03;13.30;99.90
33761;DHT22;20084;47.912;19.044;2022-10-31T08:36:29;13.20;99.90
33761;DHT22;20084;47.912;19.044;2022-10-31T08:38:55;13.30;99.90
33761;DHT22;20084;47.912;19.044;2022-10-31T08:41:21;13.30;99.90
33761;DHT22;20084;47.912;19.044;2022-10-31T08:43:47;13.30;99.90
33761;DHT22;20084;47.912;19.044;2022-10-31T08:46:13;13.40;99.90
33761;DHT22;20084;47.912;19.044;2022-10-31T08:48:38;13.40;99.90
33761;DHT22;20084;47.912;19.044;2022-10-31T08:51:04;13.40;99.90
33761;DHT22;20084;47.912;19.044;2022-10-31T08:53:30;13.40;99.90
33761;DHT22;20084;47.912;19.044;2022-10-31T08:55:56;13.40;99.90
33761;DHT22;20084;47.912;19.044;2022-10-31T08:58:22;13.40;99.90
33761;DHT22;20084;47.912;19.044;2022-10-31T09:00:51;13.40;99.90
33761;DHT22;20084;47.912;19.044;2022-10-31T09:03:19;13.50;99.90
33761;DHT22;20084;47.912;19.044;2022-10-31T09:05:45;13.50;99.90
33761;DHT22;20084;47.912;19.044;2022-10-31T09:08:11;13.50;99.90
33761;DHT22;20084;47.912;19.044;2022-10-31T09:10:37;13.50;99.90
33761;DHT22;20084;47.912;19.044;2022-10-31T09:13:12;13.40;99.90
33761;DHT22;20084;47.912;19.044;2022-10-31T09:15:40;13.40;99.90
33761;DHT22;20084;47.912;19.044;2022-10-31T09:18:07;13.40;99.90
33761;DHT22;20084;47.912;19.044;2022-10-31T09:20:35;13.40;99.90
33761;DHT22;20084;47.912;19.044;2022-10-31T09:23:11;13.40;99.90
33761;DHT22;20084;47.912;19.044;2022-10-31T09:25:37;13.50;99.90
33761;DHT22;20084;47.912;19.044;2022-10-31T09:28:04;13.50;99.90
33761;DHT22;20084;47.912;19.044;2022-10-31T09:30:32;13.50;99.90
33761;DHT22;20084;47.912;19.044;2022-10-31T09:33:00;13.50;99.90
33761;DHT22;20084;47.912;19.044;2022-10-31T09:35:27;13.50;99.90
33761;DHT22;20084;47.912;19.044;2022-10-31T09:37:57;13.50;99.90
33761;DHT22;20084;47.912;19.044;2022-10-31T09:45:49;13.50;99.90
33761;DHT22;20084;47.912;19.044;2022-10-31T09:48:51;13.50;99.90
33761;DHT22;20084;47.912;19.044;2022-10-31T09:51:28;13.40;99.90
33761;DHT22;20084;47.912;19.044;2022-10-31T09:56:36;13.50;99.90
33761;DHT22;20084;47.912;19.044;2022-10-31T09:59:04;13.50;99.90
33761;DHT22;20084;47.912;19.044;2022-10-31T10:01:38;13.50;99.90
33761;DHT22;20084;47.912;19.044;2022-10-31T10:06:55;13.50;99.90
33761;DHT22;20084;47.912;19.044;2022-10-31T10:09:25;13.50;99.90
33761;DHT22;20084;47.912;19.044;2022-10-31T10:12:19;13.50;99.90
33761;DHT22;20084;47.912;19.044;2022-10-31T10:28:39;13.70;99.90
33761;DHT22;20084;47.912;19.044;2022-10-31T10:31:16;13.70;99.90
33761;DHT22;20084;47.912;19.044;2022-10-31T10:34:08;13.70;99.90
33761;DHT22;20084;47.912;19.044;2022-10-31T10:36:48;13.80;99.90
33761;DHT22;20084;47.912;19.044;2022-10-31T10:39:38;13.80;99.90
33761;DHT22;20084;47.912;19.044;2022-10-31T10:42:12;13.80;99.90
33761;DHT22;20084;47.912;19.044;2022-10-31T10:44:57;13.80;99.90
33761;DHT22;20084;47.912;19.044;2022-10-31T10:47:44;13.80;99.90
33761;DHT22;20084;47.912;19.044;2022-10-31T10:50:19;13.70;99.90
33761;DHT22;20084;47.912;19.044;2022-10-31T10:58:30;13.70;99.90
33761;DHT22;20084;47.912;19.044;2022-10-31T11:00:56;13.80;99.90
33761;DHT22;20084;47.912;19.044;2022-10-31T11:03:21;13.80;99.90
33761;DHT22;20084;47.912;19.044;2022-10-31T11:05:54;13.80;99.90
33761;DHT22;20084;47.912;19.044;2022-10-31T11:08:28;13.80;99.90
33761;DHT22;20084;47.912;19.044;2022-10-31T11:11:05;13.80;99.90
33761;DHT22;20084;47.912;19.044;2022-10-31T11:13:33;13.80;99.90
33761;DHT22;20084;47.912;19.044;2022-10-31T11:18:30;13.70;99.90
33761;DHT22;20084;47.912;19.044;2022-10-31T11:20:58;13.80;99.90
33761;DHT22;20084;47.912;19.044;2022-10-31T11:23:26;13.80;99.90
33761;DHT22;20084;47.912;19.044;2022-10-31T11:26:05;13.80;99.90
33761;DHT22;20084;47.912;19.044;2022-10-31T11:28:32;13.80;99.90
33761;DHT22;20084;47.912;19.044;2022-10-31T11:31:05;13.70;99.90
33761;DHT22;20084;47.912;19.044;2022-10-31T11:33:34;13.80;99.90
33761;DHT22;20084;47.912;19.044;2022-10-31T11:36:02;13.80;99.90
33761;DHT22;20084;47.912;19.044;2022-10-31T11:38:34;13.90;99.90
33761;DHT22;20084;47.912;19.044;2022-10-31T11:41:07;13.90;99.90
33761;DHT22;20084;47.912;19.044;2022-10-31T11:43:34;14.00;99.90
33761;DHT22;20084;47.912;19.044;2022-10-31T11:46:09;14.00;99.90
33761;DHT22;20084;47.912;19.044;2022-10-31T11:48:34;14.00;99.90
33761;DHT22;20084;47.912;19.044;2022-10-31T11:51:01;14.00;99.90
33761;DHT22;20084;47.912;19.044;2022-10-31T11:53:29;14.00;99.90
33761;DHT22;20084;47.912;19.044;2022-10-31T11:56:12;14.00;99.90
33761;DHT22;20084;47.912;19.044;2022-10-31T11:58:39;13.90;99.90
33761;DHT22;20084;47.912;19.044;2022-10-31T12:01:05;13.80;99.90
33761;DHT22;20084;47.912;19.044;2022-10-31T12:03:54;13.70;99.90
33761;DHT22;20084;47.912;19.044;2022-10-31T12:06:36;13.70;99.90
33761;DHT22;20084;47.912;19.044;2022-10-31T12:09:02;13.80;99.90
33761;DHT22;20084;47.912;19.044;2022-10-31T12:11:43;13.90;99.90
33761;DHT22;20084;47.912;19.044;2022-10-31T12:17:26;13.90;99.90
33761;DHT22;20084;47.912;19.044;2022-10-31T12:52:24;14.00;99.90
33761;DHT22;20084;47.912;19.044;2022-10-31T12:55:09;14.00;99.90
33761;DHT22;20084;47.912;19.044;2022-10-31T12:57:44;13.90;99.90
33761;DHT22;20084;47.912;19.044;2022-10-31T13:00:16;13.90;99.90
33761;DHT22;20084;47.912;19.044;2022-10-31T13:02:44;14.00;99.90
33761;DHT22;20084;47.912;19.044;2022-10-31T13:05:27;13.90;99.90
33761;DHT22;20084;47.912;19.044;2022-10-31T13:08:10;13.90;99.90
33761;DHT22;20084;47.912;19.044;2022-10-31T13:10:49;13.90;99.90
33761;DHT22;20084;47.912;19.044;2022-10-31T13:13:54;13.80;99.90
33761;DHT22;20084;47.912;19.044;2022-10-31T13:16:24;13.80;99.90
33761;DHT22;20084;47.912;19.044;2022-10-31T13:19:04;13.70;99.90
33761;DHT22;20084;47.912;19.044;2022-10-31T13:21:50;13.80;99.90
33761;DHT22;20084;47.912;19.044;2022-10-31T13:24:21;13.80;99.90
33761;DHT22;20084;47.912;19.044;2022-10-31T13:26:53;13.70;99.90
33761;DHT22;20084;47.912;19.044;2022-10-31T13:32:29;13.60;99.90
33761;DHT22;20084;47.912;19.044;2022-10-31T13:34:56;13.60;99.90
33761;DHT22;20084;47.912;19.044;2022-10-31T13:37:28;13.60;99.90
33761;DHT22;20084;47.912;19.044;2022-10-31T13:42:43;13.60;99.90
33761;DHT22;20084;47.912;19.044;2022-10-31T13:45:17;13.50;99.90
33761;DHT22;20084;47.912;19.044;2022-10-31T13:47:43;13.50;99.90
33761;DHT22;20084;47.912;19.044;2022-10-31T13:50:21;13.50;99.90
33761;DHT22;20084;47.912;19.044;2022-10-31T13:52:47;13.60;99.90
33761;DHT22;20084;47.912;19.044;2022-10-31T13:55:35;13.60;99.90
33761;DHT22;20084;47.912;19.044;2022-10-31T13:58:04;13.50;99.90
33761;DHT22;20084;47.912;19.044;2022-10-31T14:00:31;13.50;99.90
33761;DHT22;20084;47.912;19.044;2022-10-31T14:03:00;13.50;99.90
33761;DHT22;20084;47.912;19.044;2022-10-31T14:05:34;13.50;99.90
33761;DHT22;20084;47.912;19.044;2022-10-31T14:08:04;13.50;99.90
33761;DHT22;20084;47.912;19.044;2022-10-31T14:10:33;13.60;99.90
33761;DHT22;20084;47.912;19.044;2022-10-31T14:13:22;13.50;99.90
33761;DHT22;20084;47.912;19.044;2022-10-31T14:15:56;13.50;99.90
33761;DHT22;20084;47.912;19.044;2022-10-31T14:18:34;13.50;99.90
33761;DHT22;20084;47.912;19.044;2022-10-31T14:21:01;13.50;99.90
33761;DHT22;20084;47.912;19.044;2022-10-31T14:23:40;13.50;99.90
33761;DHT22;20084;47.912;19.044;2022-10-31T14:28:46;13.50;99.90
33761;DHT22;20084;47.912;19.044;2022-10-31T14:33:53;13.50;99.90
33761;DHT22;20084;47.912;19.044;2022-10-31T14:36:26;13.60;99.90
33761;DHT22;20084;47.912;19.044;2022-10-31T14:39:07;13.60;99.90
33761;DHT22;20084;47.912;19.044;2022-10-31T14:42:00;13.60;99.90
33761;DHT22;20084;47.912;19.044;2022-10-31T14:52:36;13.70;99.90
33761;DHT22;20084;47.912;19.044;2022-10-31T14:55:06;13.60;99.90
33761;DHT22;20084;47.912;19.044;2022-10-31T14:57:34;13.70;99.90
33761;DHT22;20084;47.912;19.044;2022-10-31T15:00:07;13.60;99.90
33761;DHT22;20084;47.912;19.044;2022-10-31T15:02:35;13.60;99.90
33761;DHT22;20084;47.912;19.044;2022-10-31T15:05:08;13.60;99.90
33761;DHT22;20084;47.912;19.044;2022-10-31T15:07:34;13.60;99.90
33761;DHT22;20084;47.912;19.044;2022-10-31T15:10:05;13.60;99.90
33761;DHT22;20084;47.912;19.044;2022-10-31T15:12:33;13.70;99.90
33761;DHT22;20084;47.912;19.044;2022-10-31T15:17:44;13.70;99.90
33761;DHT22;20084;47.912;19.044;2022-10-31T15:20:20;13.60;99.90
33761;DHT22;20084;47.912;19.044;2022-10-31T15:22:47;13.70;99.90
33761;DHT22;20084;47.912;19.044;2022-10-31T15:25:21;13.60;99.90
33761;DHT22;20084;47.912;19.044;2022-10-31T15:27:48;13.60;99.90
33761;DHT22;20084;47.912;19.044;2022-10-31T15:32:45;13.60;99.90
33761;DHT22;20084;47.912;19.044;2022-10-31T15:35:25;13.60;99.90
33761;DHT22;20084;47.912;19.044;2022-10-31T15:37:52;13.60;99.90
33761;DHT22;20084;47.912;19.044;2022-10-31T15:40:20;13.60;99.90
33761;DHT22;20084;47.912;19.044;2022-10-31T15:42:56;13.50;99.90
33761;DHT22;20084;47.912;19.044;2022-10-31T15:45:25;13.50;99.90
33761;DHT22;20084;47.912;19.044;2022-10-31T15:48:17;13.60;99.90
33761;DHT22;20084;47.912;19.044;2022-10-31T15:50:49;13.60;99.90
33761;DHT22;20084;47.912;19.044;2022-10-31T15:53:18;13.60;99.90
33761;DHT22;20084;47.912;19.044;2022-10-31T15:55:49;13.60;99.90
33761;DHT22;20084;47.912;19.044;2022-10-31T15:58:16;13.60;99.90
33761;DHT22;20084;47.912;19.044;2022-10-31T16:00:43;13.50;99.90
33761;DHT22;20084;47.912;19.044;2022-10-31T16:05:49;13.50;99.90
33761;DHT22;20084;47.912;19.044;2022-10-31T16:10:57;13.40;99.90
33761;DHT22;20084;47.912;19.044;2022-10-31T16:13:29;13.50;99.90
33761;DHT22;20084;47.912;19.044;2022-10-31T16:15:59;13.40;99.90
33761;DHT22;20084;47.912;19.044;2022-10-31T16:18:26;13.40;99.90
33761;DHT22;20084;47.912;19.044;2022-10-31T16:20:53;13.40;99.90
33761;DHT22;20084;47.912;19.044;2022-10-31T16:23:22;13.40;99.90
33761;DHT22;20084;47.912;19.044;2022-10-31T16:25:50;13.40;99.90
33761;DHT22;20084;47.912;19.044;2022-10-31T16:28:22;13.40;99.90
33761;DHT22;20084;47.912;19.044;2022-10-31T16:30:51;13.50;99.90
33761;DHT22;20084;47.912;19.044;2022-10-31T16:33:26;13.40;99.90
33761;DHT22;20084;47.912;19.044;2022-10-31T16:35:54;13.40;99.90
33761;DHT22;20084;47.912;19.044;2022-10-31T16:38:20;13.40;99.90
33761;DHT22;20084;47.912;19.044;2022-10-31T16:40:46;13.40;99.90
33761;DHT22;20084;47.912;19.044;2022-10-31T16:43:14;13.40;99.90
33761;DHT22;20084;47.912;19.044;2022-10-31T16:45:49;13.40;99.90
33761;DHT22;20084;47.912;19.044;2022-10-31T16:48:18;13.30;99.90
33761;DHT22;20084;47.912;19.044;2022-10-31T16:50:44;13.30;99.90
33761;DHT22;20084;47.912;19.044;2022-10-31T16:53:12;13.30;99.90
33761;DHT22;20084;47.912;19.044;2022-10-31T16:55:55;13.30;99.90
33761;DHT22;20084;47.912;19.044;2022-10-31T16:58:24;13.40;99.90
33761;DHT22;20084;47.912;19.044;2022-10-31T17:00:51;13.40;99.90
33761;DHT22;20084;47.912;19.044;2022-10-31T17:03:16;13.30;99.90
33761;DHT22;20084;47.912;19.044;2022-10-31T17:05:42;13.30;99.90
33761;DHT22;20084;47.912;19.044;2022-10-31T17:08:08;13.30;99.90
33761;DHT22;20084;47.912;19.044;2022-10-31T17:10:34;13.30;99.90
33761;DHT22;20084;47.912;19.044;2022-10-31T17:13:01;13.30;99.90
33761;DHT22;20084;47.912;19.044;2022-10-31T17:15:29;13.20;99.90
33761;DHT22;20084;47.912;19.044;2022-10-31T17:17:56;13.30;99.90
33761;DHT22;20084;47.912;19.044;2022-10-31T17:20:28;13.30;99.90
33761;DHT22;20084;47.912;19.044;2022-10-31T17:22:55;13.30;99.90
33761;DHT22;20084;47.912;19.044;2022-10-31T17:25:25;13.30;99.90
33761;DHT22;20084;47.912;19.044;2022-10-31T17:27:51;13.30;99.90
33761;DHT22;20084;47.912;19.044;2022-10-31T17:30:18;13.30;99.90
33761;DHT22;20084;47.912;19.044;2022-10-31T17:32:45;13.30;99.90